createdAt,value
2017-12-30T00:01:52.897Z,80.40
2017-12-30T00:04:20.378Z,80.40
2017-12-30T00:06:47.859Z,80.40
2017-12-30T00:09:15.338Z,80.30
2017-12-30T00:11:42.874Z,80.30
2017-12-30T00:14:10.335Z,80.20
2017-12-30T00:16:37.764Z,80.20
2017-12-30T00:19:05.225Z,80.00
2017-12-30T00:21:33.095Z,80.00
2017-12-30T00:24:00.512Z,80.00
2017-12-30T00:26:27.954Z,79.90
2017-12-30T00:28:55.367Z,79.90
2017-12-30T00:31:23.181Z,80.10
2017-12-30T00:33:50.652Z,80.10
2017-12-30T00:36:18.071Z,80.00
2017-12-30T00:38:45.509Z,80.10
2017-12-30T00:41:13.354Z,80.10
2017-12-30T00:43:40.893Z,80.10
2017-12-30T00:46:08.359Z,80.20
2017-12-30T00:48:35.837Z,80.30
2017-12-30T00:51:03.266Z,80.30
2017-12-30T00:53:30.718Z,80.20
2017-12-30T00:55:58.165Z,80.10
2017-12-30T00:58:26.074Z,80.00
2017-12-30T01:00:53.527Z,80.00
2017-12-30T01:03:20.998Z,79.90
2017-12-30T01:05:48.449Z,79.90
2017-12-30T01:08:15.931Z,79.70
2017-12-30T01:10:43.378Z,79.70
2017-12-30T01:13:10.822Z,79.60
2017-12-30T01:15:38.346Z,79.60
2017-12-30T01:18:05.758Z,79.70
2017-12-30T01:20:34.271Z,79.80
2017-12-30T01:23:01.819Z,80.10
2017-12-30T01:25:29.246Z,80.40
2017-12-30T01:27:57.112Z,80.70
2017-12-30T01:30:24.951Z,81.20
2017-12-30T01:32:52.386Z,81.20
2017-12-30T01:35:19.851Z,81.40
2017-12-30T01:37:47.788Z,81.70
2017-12-30T01:40:15.234Z,81.60
2017-12-30T01:42:43.155Z,81.40
2017-12-30T01:45:10.622Z,81.30
2017-12-30T01:47:38.054Z,81.10
2017-12-30T01:50:05.531Z,81.10
2017-12-30T01:52:32.982Z,81.00
2017-12-30T01:55:00.419Z,81.20
2017-12-30T01:57:28.322Z,81.20
2017-12-30T01:59:55.754Z,81.20
2017-12-30T02:02:23.250Z,81.10
2017-12-30T02:04:50.702Z,81.10
2017-12-30T02:07:18.189Z,81.00
2017-12-30T02:09:45.616Z,80.90
2017-12-30T02:12:13.040Z,80.80
2017-12-30T02:14:40.495Z,80.70
2017-12-30T02:17:07.932Z,80.60
2017-12-30T02:19:35.384Z,80.50
2017-12-30T02:22:02.859Z,80.40
2017-12-30T02:24:30.325Z,80.40
2017-12-30T02:26:57.893Z,80.30
2017-12-30T02:29:25.328Z,80.30
2017-12-30T02:31:52.802Z,80.10
2017-12-30T02:34:20.251Z,80.10
2017-12-30T02:36:47.708Z,80.00
2017-12-30T02:39:15.138Z,79.80
2017-12-30T02:41:43.045Z,79.70
2017-12-30T02:44:10.472Z,79.70
2017-12-30T02:46:38.326Z,79.70
2017-12-30T02:49:05.850Z,79.70
2017-12-30T02:51:33.319Z,79.80
2017-12-30T02:54:00.781Z,79.70
2017-12-30T02:56:28.207Z,79.50
2017-12-30T02:58:55.649Z,79.30
2017-12-30T03:01:23.154Z,79.20
2017-12-30T03:03:50.611Z,79.10
2017-12-30T03:06:18.055Z,79.10
2017-12-30T03:08:45.484Z,79.00
2017-12-30T03:11:12.911Z,79.00
2017-12-30T03:13:40.358Z,79.00
2017-12-30T03:16:07.795Z,79.00
2017-12-30T03:18:35.280Z,79.10
2017-12-30T03:21:02.702Z,79.10
2017-12-30T03:23:31.852Z,79.10
2017-12-30T03:25:59.270Z,79.10
2017-12-30T03:28:26.762Z,79.00
2017-12-30T03:30:54.209Z,79.10
2017-12-30T03:33:21.640Z,79.20
2017-12-30T03:35:49.487Z,79.20
2017-12-30T03:38:17.024Z,79.20
2017-12-30T03:40:44.454Z,79.30
2017-12-30T03:43:11.873Z,79.40
2017-12-30T03:45:39.608Z,79.40
2017-12-30T03:48:07.044Z,79.30
2017-12-30T03:50:34.477Z,79.30
2017-12-30T03:53:02.005Z,79.20
2017-12-30T03:55:29.454Z,79.30
2017-12-30T03:57:56.910Z,79.50
2017-12-30T04:00:24.339Z,79.30
2017-12-30T04:02:52.191Z,80.00
2017-12-30T04:05:19.716Z,80.00
2017-12-30T04:07:47.190Z,80.00
2017-12-30T04:10:14.679Z,80.00
2017-12-30T04:12:42.197Z,80.00
2017-12-30T04:15:09.672Z,80.00
2017-12-30T04:17:37.112Z,80.10
2017-12-30T04:20:04.781Z,80.20
2017-12-30T04:22:32.588Z,80.60
2017-12-30T04:25:00.034Z,80.60
2017-12-30T04:27:27.508Z,80.80
2017-12-30T04:29:54.941Z,80.70
2017-12-30T04:32:22.483Z,80.70
2017-12-30T04:34:49.918Z,80.80
2017-12-30T04:37:17.731Z,81.00
2017-12-30T04:39:45.190Z,81.10
2017-12-30T04:42:12.633Z,81.10
2017-12-30T04:44:40.455Z,81.20
2017-12-30T04:47:07.989Z,81.20
2017-12-30T04:49:35.407Z,81.20
2017-12-30T04:52:03.227Z,81.10
2017-12-30T04:54:30.673Z,81.10
2017-12-30T04:56:58.107Z,81.10
2017-12-30T04:59:25.943Z,80.90
2017-12-30T05:01:53.378Z,80.90
2017-12-30T05:04:20.798Z,80.80
2017-12-30T05:06:48.730Z,80.60
2017-12-30T05:09:16.178Z,80.60
2017-12-30T05:11:43.647Z,80.60
2017-12-30T05:14:11.083Z,80.50
2017-12-30T05:16:38.550Z,80.30
2017-12-30T05:19:06.031Z,80.20
2017-12-30T05:21:33.450Z,79.90
2017-12-30T05:24:01.293Z,79.70
2017-12-30T05:26:28.742Z,79.70
2017-12-30T05:28:56.307Z,79.70
2017-12-30T05:31:23.767Z,79.50
2017-12-30T05:33:51.395Z,79.40
2017-12-30T05:36:18.803Z,79.40
2017-12-30T05:38:46.237Z,79.40
2017-12-30T05:41:13.661Z,79.60
2017-12-30T05:43:41.091Z,79.70
2017-12-30T05:46:08.820Z,79.80
2017-12-30T05:48:36.266Z,79.80
2017-12-30T05:51:03.746Z,79.80
2017-12-30T05:53:31.174Z,79.90
2017-12-30T05:55:59.063Z,80.00
2017-12-30T05:58:26.538Z,80.00
2017-12-30T06:00:53.963Z,79.90
2017-12-30T06:03:21.424Z,79.90
2017-12-30T06:05:49.259Z,80.00
2017-12-30T06:08:16.711Z,80.00
2017-12-30T06:10:44.168Z,79.90
2017-12-30T06:13:11.595Z,79.90
2017-12-30T06:15:39.051Z,79.90
2017-12-30T06:18:06.598Z,79.90
2017-12-30T06:20:34.486Z,80.00
2017-12-30T06:23:02.390Z,80.10
2017-12-30T06:25:29.843Z,80.10
2017-12-30T06:27:57.297Z,80.30
2017-12-30T06:30:24.763Z,80.50
2017-12-30T06:32:52.243Z,80.60
2017-12-30T06:35:19.698Z,80.70
2017-12-30T06:37:47.150Z,80.70
2017-12-30T06:40:14.580Z,80.80
2017-12-30T06:42:42.424Z,80.70
2017-12-30T06:45:09.902Z,80.70
2017-12-30T06:47:37.331Z,80.70
2017-12-30T06:50:04.884Z,80.70
2017-12-30T06:52:32.322Z,80.50
2017-12-30T06:54:59.775Z,80.40
2017-12-30T06:57:27.220Z,80.40
2017-12-30T06:59:55.039Z,80.20
2017-12-30T07:02:22.511Z,80.20
2017-12-30T07:04:50.071Z,80.10
2017-12-30T07:07:17.525Z,80.00
2017-12-30T07:09:44.959Z,80.00
2017-12-30T07:12:12.399Z,79.90
2017-12-30T07:14:39.837Z,79.90
2017-12-30T07:17:07.344Z,79.80
2017-12-30T07:19:35.168Z,79.80
2017-12-30T07:22:02.623Z,79.80
2017-12-30T07:24:30.075Z,79.90
2017-12-30T07:26:57.506Z,80.00
2017-12-30T07:29:25.086Z,80.10
2017-12-30T07:31:52.563Z,80.20
2017-12-30T07:34:20.034Z,80.30
2017-12-30T07:36:47.511Z,80.20
2017-12-30T07:39:14.981Z,80.70
2017-12-30T07:41:42.507Z,80.90
2017-12-30T07:44:09.959Z,81.00
2017-12-30T07:46:37.416Z,81.00
2017-12-30T07:49:04.893Z,80.90
2017-12-30T07:51:32.357Z,80.90
2017-12-30T07:53:59.817Z,81.00
2017-12-30T07:56:27.252Z,80.90
2017-12-30T07:58:54.708Z,81.20
2017-12-30T08:01:22.207Z,81.30
2017-12-30T08:03:49.654Z,81.30
2017-12-30T08:06:17.139Z,81.40
2017-12-30T08:08:44.582Z,81.40
2017-12-30T08:11:12.040Z,81.50
2017-12-30T08:13:39.506Z,81.60
2017-12-30T08:16:06.967Z,81.70
2017-12-30T08:18:34.420Z,81.60
2017-12-30T08:21:01.905Z,81.50
2017-12-30T08:23:29.392Z,81.40
2017-12-30T08:25:57.229Z,81.40
2017-12-30T08:28:24.669Z,81.40
2017-12-30T08:30:52.144Z,81.30
2017-12-30T08:33:19.599Z,81.20
2017-12-30T08:35:47.070Z,81.30
2017-12-30T08:38:14.539Z,81.40
2017-12-30T08:40:41.980Z,81.50
2017-12-30T08:43:09.453Z,81.60
2017-12-30T08:45:36.954Z,81.60
2017-12-30T08:48:04.416Z,81.90
2017-12-30T08:50:31.846Z,82.00
2017-12-30T08:52:59.318Z,82.00
2017-12-30T08:55:26.759Z,82.00
2017-12-30T08:57:54.211Z,82.00
2017-12-30T09:00:21.650Z,82.10
2017-12-30T09:02:49.096Z,82.30
2017-12-30T09:05:16.963Z,82.50
2017-12-30T09:07:44.841Z,82.60
2017-12-30T09:10:12.277Z,82.60
2017-12-30T09:12:39.744Z,82.60
2017-12-30T09:15:07.210Z,82.90
2017-12-30T09:17:35.044Z,82.90
2017-12-30T09:20:02.619Z,82.90
2017-12-30T09:22:30.205Z,83.10
2017-12-30T09:24:57.683Z,83.40
2017-12-30T09:27:25.579Z,83.80
2017-12-30T09:29:53.011Z,83.80
2017-12-30T09:32:20.970Z,84.00
2017-12-30T09:34:48.411Z,84.00
2017-12-30T09:37:15.869Z,84.50
2017-12-30T09:39:43.334Z,84.70
2017-12-30T09:42:10.933Z,84.70
2017-12-30T09:44:38.344Z,84.90
2017-12-30T09:47:05.822Z,84.90
2017-12-30T09:49:33.253Z,84.90
2017-12-30T09:52:00.706Z,84.80
2017-12-30T09:54:28.170Z,84.70
2017-12-30T09:56:56.063Z,84.90
2017-12-30T09:59:23.494Z,84.90
2017-12-30T10:01:51.002Z,85.00
2017-12-30T10:04:18.406Z,85.00
2017-12-30T10:06:46.254Z,84.80
2017-12-30T10:09:13.702Z,84.80
2017-12-30T10:11:41.140Z,84.40
2017-12-30T10:14:08.601Z,84.60
2017-12-30T10:16:36.662Z,84.70
2017-12-30T10:19:04.107Z,84.70
2017-12-30T10:21:31.948Z,84.60
2017-12-30T10:23:59.378Z,84.60
2017-12-30T10:26:26.819Z,84.60
2017-12-30T10:28:54.378Z,84.50
2017-12-30T10:31:21.832Z,84.40
2017-12-30T10:33:49.518Z,84.40
2017-12-30T10:36:16.942Z,84.50
2017-12-30T10:38:44.396Z,84.40
2017-12-30T10:41:11.876Z,84.50
2017-12-30T10:43:39.319Z,84.60
2017-12-30T10:46:07.152Z,84.90
2017-12-30T10:48:34.599Z,84.90
2017-12-30T10:51:02.074Z,84.50
2017-12-30T10:53:29.490Z,84.70
2017-12-30T10:55:57.008Z,84.80
2017-12-30T10:58:24.431Z,84.70
2017-12-30T11:00:57.599Z,84.80
2017-12-30T11:03:25.111Z,84.80
2017-12-30T11:05:52.606Z,84.80
2017-12-30T11:08:20.039Z,84.80
2017-12-30T11:10:47.574Z,85.00
2017-12-30T11:13:15.052Z,85.10
2017-12-30T11:15:42.525Z,84.80
2017-12-30T11:18:09.959Z,84.50
2017-12-30T11:20:37.410Z,84.50
2017-12-30T11:23:04.862Z,84.40
2017-12-30T11:25:32.281Z,84.60
2017-12-30T11:27:59.711Z,84.40
2017-12-30T11:30:27.159Z,84.10
2017-12-30T11:32:54.634Z,84.30
2017-12-30T11:35:22.422Z,84.40
2017-12-30T11:37:49.839Z,84.40
2017-12-30T11:40:17.343Z,84.10
2017-12-30T11:42:44.795Z,84.00
2017-12-30T11:45:12.228Z,84.00
2017-12-30T11:47:39.661Z,84.10
2017-12-30T11:50:07.190Z,83.90
2017-12-30T11:52:34.627Z,83.90
2017-12-30T11:55:02.111Z,83.90
2017-12-30T11:57:29.553Z,83.90
2017-12-30T11:59:56.965Z,83.60
2017-12-30T12:02:24.384Z,83.50
2017-12-30T12:04:51.938Z,83.20
2017-12-30T12:07:19.418Z,83.00
2017-12-30T12:09:46.857Z,82.90
2017-12-30T12:12:14.266Z,82.70
2017-12-30T12:14:41.738Z,82.60
2017-12-30T12:17:09.156Z,82.70
2017-12-30T12:19:36.571Z,82.60
2017-12-30T12:22:04.391Z,82.30
2017-12-30T12:24:32.269Z,82.30
2017-12-30T12:26:59.806Z,82.00
2017-12-30T12:29:27.337Z,81.70
2017-12-30T12:31:54.888Z,81.30
2017-12-30T12:34:22.311Z,81.10
2017-12-30T12:36:49.838Z,81.00
2017-12-30T12:39:17.338Z,80.90
2017-12-30T12:41:44.803Z,80.70
2017-12-30T12:44:13.075Z,80.40
2017-12-30T12:46:40.549Z,80.50
2017-12-30T12:49:07.992Z,80.40
2017-12-30T12:51:35.460Z,80.20
2017-12-30T12:54:02.926Z,80.10
2017-12-30T12:56:30.465Z,80.00
2017-12-30T12:58:58.010Z,80.10
2017-12-30T13:01:26.450Z,80.30
2017-12-30T13:03:53.880Z,80.50
2017-12-30T13:06:21.339Z,80.50
2017-12-30T13:08:48.774Z,80.50
2017-12-30T13:11:16.578Z,80.60
2017-12-30T13:13:44.086Z,80.60
2017-12-30T13:16:11.571Z,80.70
2017-12-30T13:18:39.102Z,80.80
2017-12-30T13:21:06.545Z,80.70
2017-12-30T13:23:34.040Z,80.70
2017-12-30T13:26:01.952Z,80.70
2017-12-30T13:28:29.802Z,80.80
2017-12-30T13:30:57.241Z,80.80
2017-12-30T13:33:24.707Z,81.00
2017-12-30T13:35:52.331Z,81.10
2017-12-30T13:38:19.789Z,81.10
2017-12-30T13:40:47.450Z,81.10
2017-12-30T13:43:15.589Z,81.10
2017-12-30T13:45:43.552Z,81.30
2017-12-30T13:48:11.038Z,81.30
2017-12-30T13:50:38.845Z,81.30
2017-12-30T13:53:06.310Z,81.40
2017-12-30T13:55:33.897Z,81.50
2017-12-30T13:58:01.615Z,81.50
2017-12-30T14:00:29.485Z,81.60
2017-12-30T14:02:56.975Z,81.50
2017-12-30T14:05:24.499Z,81.60
2017-12-30T14:07:52.639Z,81.60
2017-12-30T14:10:20.143Z,81.60
2017-12-30T14:12:48.034Z,81.70
2017-12-30T14:15:15.603Z,81.70
2017-12-30T14:17:43.107Z,81.80
2017-12-30T14:20:10.660Z,82.00
2017-12-30T14:22:38.280Z,82.00
2017-12-30T14:25:05.789Z,82.10
2017-12-30T14:27:33.795Z,82.10
2017-12-30T14:30:01.355Z,82.20
2017-12-30T14:32:28.990Z,82.20
2017-12-30T14:34:56.485Z,82.30
2017-12-30T14:37:24.404Z,82.30
